createdAt,value
2023-02-14T00:02:42.591Z,23.82
2023-02-14T00:06:14.864Z,23.80
2023-02-14T00:09:42.530Z,23.79
2023-02-14T00:13:04.948Z,23.79
2023-02-14T00:16:26.730Z,23.79
2023-02-14T00:19:48.571Z,23.77
2023-02-14T00:23:10.314Z,23.77
2023-02-14T00:26:32.125Z,23.77
2023-02-14T00:29:54.818Z,23.77
2023-02-14T00:33:16.626Z,23.76
2023-02-14T00:36:39.110Z,23.76
2023-02-14T00:40:00.896Z,23.76
2023-02-14T00:43:22.677Z,23.76
2023-02-14T00:46:44.459Z,23.75
2023-02-14T00:50:06.561Z,23.74
2023-02-14T00:53:28.305Z,23.74
2023-02-14T00:56:50.142Z,23.73
2023-02-14T01:00:13.618Z,23.72
2023-02-14T01:03:36.330Z,23.72
2023-02-14T01:07:00.729Z,23.71
2023-02-14T01:10:22.534Z,23.71
2023-02-14T01:13:45.077Z,23.71
2023-02-14T01:17:06.888Z,23.70
2023-02-14T01:20:28.758Z,23.70
2023-02-14T01:23:55.852Z,23.69
2023-02-14T01:27:17.608Z,23.69
2023-02-14T01:30:39.521Z,23.68
2023-02-14T01:34:01.886Z,23.68
2023-02-14T01:37:23.842Z,23.67
2023-02-14T01:40:45.790Z,23.67
2023-02-14T01:44:33.204Z,23.67
2023-02-14T01:47:56.845Z,23.65
2023-02-14T01:51:20.170Z,23.65
2023-02-14T01:54:47.989Z,23.64
2023-02-14T01:58:14.293Z,23.64
2023-02-14T02:01:36.157Z,23.63
2023-02-14T02:04:57.968Z,23.62
2023-02-14T02:08:20.703Z,23.62
2023-02-14T02:11:43.047Z,23.61
2023-02-14T02:15:06.351Z,23.61
2023-02-14T02:19:18.704Z,23.61
2023-02-14T02:22:57.064Z,23.56
2023-02-14T02:26:37.539Z,23.56
2023-02-14T02:30:25.448Z,23.55
2023-02-14T02:33:48.211Z,23.54
2023-02-14T02:37:41.098Z,23.55
2023-02-14T02:41:23.282Z,23.54
2023-02-14T02:44:55.979Z,23.53
2023-02-14T02:48:20.556Z,23.53
2023-02-14T02:52:01.032Z,23.53
2023-02-14T02:55:54.092Z,23.53
2023-02-14T02:59:20.886Z,23.50
2023-02-14T03:03:11.913Z,23.50
2023-02-14T03:06:34.153Z,23.49
2023-02-14T03:09:58.335Z,23.50
2023-02-14T03:13:58.012Z,23.49
2023-02-14T03:17:28.063Z,23.47
2023-02-14T03:20:52.113Z,23.46
2023-02-14T03:24:16.908Z,23.36
2023-02-14T03:27:46.426Z,23.41
2023-02-14T03:31:08.217Z,23.43
2023-02-14T03:34:36.265Z,23.33
2023-02-14T03:38:07.160Z,23.37
2023-02-14T03:41:33.179Z,23.39
2023-02-14T03:44:56.731Z,23.40
2023-02-14T03:48:22.711Z,23.40
2023-02-14T03:51:49.509Z,23.39
2023-02-14T03:55:12.213Z,23.38
2023-02-14T03:58:39.869Z,23.38
2023-02-14T04:02:09.195Z,23.37
2023-02-14T04:05:31.155Z,23.35
2023-02-14T04:08:53.122Z,23.35
2023-02-14T04:12:18.173Z,23.34
2023-02-14T04:15:41.806Z,23.34
2023-02-14T04:19:22.366Z,23.34
2023-02-14T04:22:46.372Z,23.32
2023-02-14T04:26:08.240Z,23.32
2023-02-14T04:29:29.988Z,23.32
2023-02-14T04:32:51.829Z,23.31
2023-02-14T04:36:14.522Z,23.30
2023-02-14T04:39:36.994Z,23.29
2023-02-14T04:42:58.853Z,23.29
2023-02-14T04:46:20.729Z,23.28
2023-02-14T04:49:42.694Z,23.28
2023-02-14T04:53:04.593Z,23.28
2023-02-14T04:56:28.675Z,23.27
2023-02-14T04:59:50.458Z,23.27
2023-02-14T05:03:12.239Z,23.26
2023-02-14T05:06:34.460Z,23.26
2023-02-14T05:09:56.455Z,23.27
2023-02-14T05:13:18.362Z,23.27
2023-02-14T05:16:40.156Z,23.26
2023-02-14T05:20:08.929Z,23.26
2023-02-14T05:23:30.743Z,23.25
2023-02-14T05:26:52.592Z,23.25
2023-02-14T05:30:15.069Z,23.24
2023-02-14T05:33:37.230Z,23.24
2023-02-14T05:36:59.006Z,23.24
2023-02-14T05:40:20.838Z,23.24
2023-02-14T05:43:42.651Z,23.23
2023-02-14T05:47:04.683Z,23.23
2023-02-14T05:50:26.546Z,23.23
2023-02-14T05:53:48.843Z,23.23
2023-02-14T05:57:10.648Z,23.22
2023-02-14T06:00:32.569Z,23.23
2023-02-14T06:03:54.400Z,23.22
2023-02-14T06:10:52.300Z,23.23
2023-02-14T06:14:14.783Z,23.22
2023-02-14T06:17:38.156Z,23.23
2023-02-14T06:21:00.202Z,23.22
2023-02-14T06:24:22.229Z,23.23
2023-02-14T06:27:44.032Z,23.23
2023-02-14T06:31:05.885Z,23.24
2023-02-14T06:34:27.779Z,23.24
2023-02-14T06:37:49.716Z,23.23
2023-02-14T06:41:11.876Z,23.24
2023-02-14T06:44:33.660Z,23.24
2023-02-14T06:47:55.463Z,23.24
2023-02-14T06:51:17.358Z,23.25
2023-02-14T06:54:39.170Z,23.26
2023-02-14T06:58:00.929Z,23.27
2023-02-14T07:01:23.079Z,23.29
2023-02-14T07:04:45.163Z,23.32
2023-02-14T07:08:08.224Z,23.34
2023-02-14T07:11:29.990Z,23.36
2023-02-14T07:14:51.741Z,23.38
2023-02-14T07:18:13.539Z,23.41
2023-02-14T07:21:35.394Z,23.43
2023-02-14T07:24:57.420Z,23.45
2023-02-14T07:28:19.264Z,23.47
2023-02-14T07:31:43.277Z,23.50
2023-02-14T07:35:05.876Z,23.52
2023-02-14T07:38:30.600Z,23.54
2023-02-14T07:41:52.358Z,23.56
2023-02-14T07:45:22.365Z,23.58
2023-02-14T07:48:44.389Z,23.61
2023-02-14T07:52:07.617Z,23.64
2023-02-14T07:55:29.448Z,23.67
2023-02-14T07:58:57.515Z,23.68
2023-02-14T08:02:22.906Z,23.70
2023-02-14T08:05:44.785Z,23.71
2023-02-14T08:09:07.246Z,23.74
2023-02-14T08:12:47.729Z,23.77
2023-02-14T08:16:11.773Z,23.78
2023-02-14T08:19:34.213Z,23.82
2023-02-14T08:22:56.711Z,23.84
2023-02-14T08:26:18.681Z,23.85
2023-02-14T08:29:40.452Z,23.88
2023-02-14T08:33:03.288Z,23.90
2023-02-14T08:36:25.115Z,23.93
2023-02-14T08:39:47.028Z,23.98
2023-02-14T08:43:08.945Z,24.01
2023-02-14T08:46:31.009Z,24.05
2023-02-14T08:49:54.060Z,24.11
2023-02-14T08:53:16.059Z,24.15
2023-02-14T08:56:38.519Z,24.20
2023-02-14T09:00:03.255Z,24.26
2023-02-14T09:03:27.317Z,24.29
2023-02-14T09:06:49.137Z,24.32
2023-02-14T09:10:11.653Z,24.35
2023-02-14T09:13:33.451Z,24.37
2023-02-14T09:16:55.561Z,24.39
2023-02-14T09:20:17.531Z,24.40
2023-02-14T09:23:39.697Z,24.42
2023-02-14T09:27:01.656Z,24.45
2023-02-14T09:30:23.425Z,24.46
2023-02-14T09:37:35.690Z,24.49
2023-02-14T09:40:59.233Z,24.53
2023-02-14T09:44:29.598Z,24.64
2023-02-14T09:47:54.173Z,24.73
2023-02-14T09:51:23.426Z,24.80
2023-02-14T09:54:50.828Z,24.84
2023-02-14T09:58:21.384Z,24.86
2023-02-14T10:01:49.022Z,24.88
2023-02-14T10:05:15.401Z,24.93
2023-02-14T10:09:03.646Z,24.99
2023-02-14T10:12:32.003Z,25.05
2023-02-14T10:19:53.057Z,25.05
2023-02-14T10:23:39.514Z,25.08
2023-02-14T10:27:28.003Z,25.11
2023-02-14T10:31:22.500Z,25.14
2023-02-14T10:34:49.212Z,25.17
2023-02-14T10:38:24.390Z,25.21
2023-02-14T10:42:08.848Z,25.21
2023-02-14T10:45:42.410Z,25.20
2023-02-14T10:49:34.749Z,25.27
2023-02-14T10:53:14.138Z,25.39
2023-02-14T10:56:37.908Z,25.46
2023-02-14T11:00:06.941Z,25.48
2023-02-14T11:03:28.901Z,25.60
2023-02-14T11:06:51.430Z,25.63
2023-02-14T11:10:14.720Z,25.66
2023-02-14T11:13:38.837Z,25.71
2023-02-14T11:17:01.841Z,25.76
2023-02-14T11:20:30.533Z,25.76
2023-02-14T11:23:52.480Z,25.78
2023-02-14T11:27:14.250Z,25.79
2023-02-14T11:30:41.125Z,25.86
2023-02-14T11:34:05.830Z,25.96
2023-02-14T11:37:37.785Z,26.09
2023-02-14T11:41:00.239Z,26.19
2023-02-14T11:44:26.197Z,26.22
2023-02-14T11:47:47.970Z,26.38
2023-02-14T11:51:15.090Z,26.55
2023-02-14T11:54:39.400Z,26.59
2023-02-14T11:58:03.416Z,26.53
2023-02-14T12:01:28.638Z,26.51
2023-02-14T12:04:53.448Z,26.47
2023-02-14T12:08:15.768Z,26.52
2023-02-14T12:11:38.147Z,26.79
2023-02-14T12:15:24.737Z,26.86
2023-02-14T12:19:11.630Z,26.81
2023-02-14T12:22:41.985Z,26.74
2023-02-14T12:26:09.920Z,26.69
2023-02-14T12:29:39.490Z,26.65
2023-02-14T12:33:01.494Z,26.61
2023-02-14T12:36:49.284Z,26.54
2023-02-14T12:40:28.301Z,26.44
2023-02-14T12:43:56.433Z,26.37
2023-02-14T12:47:31.515Z,26.30
2023-02-14T12:51:05.142Z,26.32
2023-02-14T12:54:38.873Z,26.32
2023-02-14T12:58:09.690Z,26.26
2023-02-14T13:01:40.617Z,26.15
2023-02-14T13:05:23.544Z,26.03
2023-02-14T13:09:14.820Z,25.91
2023-02-14T13:12:42.907Z,25.74
2023-02-14T13:16:07.844Z,25.68
2023-02-14T13:19:36.449Z,25.66
2023-02-14T13:23:06.443Z,25.66
2023-02-14T13:26:39.161Z,25.67
2023-02-14T13:30:21.620Z,25.69
2023-02-14T13:33:54.604Z,25.68
2023-02-14T13:37:20.013Z,25.69
2023-02-14T13:40:42.615Z,25.70
2023-02-14T13:44:14.793Z,25.63
2023-02-14T13:47:47.908Z,25.62
2023-02-14T13:51:13.742Z,25.75
2023-02-14T13:54:51.962Z,25.89
2023-02-14T13:58:24.365Z,26.08
2023-02-14T14:01:49.697Z,26.16
2023-02-14T14:05:49.249Z,26.15
2023-02-14T14:09:13.007Z,26.11
2023-02-14T14:12:35.044Z,26.09
2023-02-14T14:16:27.849Z,25.95
2023-02-14T14:19:50.451Z,25.67
2023-02-14T14:23:44.498Z,25.48
2023-02-14T14:27:24.575Z,25.29
2023-02-14T14:30:46.805Z,25.16
2023-02-14T14:34:17.330Z,25.04
2023-02-14T14:37:50.459Z,24.95
2023-02-14T14:41:12.418Z,24.86
2023-02-14T14:44:36.505Z,24.76
2023-02-14T14:48:04.526Z,24.68
2023-02-14T14:51:28.491Z,24.61
2023-02-14T14:54:50.878Z,24.52
2023-02-14T14:58:31.247Z,24.43
2023-02-14T15:01:54.578Z,24.38
2023-02-14T15:05:35.157Z,24.32
2023-02-14T15:08:56.974Z,24.26
2023-02-14T15:12:41.560Z,24.21
2023-02-14T15:16:04.013Z,24.16
2023-02-14T15:19:34.860Z,24.13
2023-02-14T15:22:57.580Z,24.08
2023-02-14T15:26:27.396Z,24.05
2023-02-14T15:30:01.440Z,24.02
2023-02-14T15:33:23.298Z,23.95
2023-02-14T15:36:54.339Z,23.92
2023-02-14T15:40:23.533Z,24.00
2023-02-14T15:43:53.001Z,24.07
2023-02-14T15:47:17.215Z,24.11
2023-02-14T15:50:50.852Z,24.16
2023-02-14T15:54:23.908Z,24.20
2023-02-14T15:57:55.070Z,24.20
2023-02-14T16:01:21.735Z,24.20
2023-02-14T16:04:43.667Z,24.22
2023-02-14T16:08:28.783Z,24.21
2023-02-14T16:11:50.916Z,24.20
2023-02-14T16:15:22.529Z,24.19
2023-02-14T16:18:50.089Z,24.19
2023-02-14T16:22:38.575Z,24.17
2023-02-14T16:26:03.727Z,24.15
2023-02-14T16:29:25.833Z,24.14
2023-02-14T16:36:37.584Z,24.09
2023-02-14T16:40:02.444Z,24.08
2023-02-14T16:43:24.816Z,24.06
2023-02-14T16:46:47.024Z,24.05
2023-02-14T16:50:09.391Z,24.03
2023-02-14T16:53:31.683Z,24.03
2023-02-14T16:56:57.921Z,24.01
2023-02-14T17:00:20.115Z,24.00
2023-02-14T17:03:45.377Z,23.99
2023-02-14T17:07:07.472Z,23.98
2023-02-14T17:10:30.224Z,23.97
2023-02-14T17:13:52.459Z,23.95
2023-02-14T17:17:14.432Z,23.94
2023-02-14T17:20:36.507Z,23.92
2023-02-14T17:23:58.500Z,23.91
2023-02-14T17:27:20.304Z,23.88
2023-02-14T17:30:42.142Z,23.87
2023-02-14T17:34:04.095Z,23.84
2023-02-14T17:37:25.862Z,23.82
2023-02-14T17:40:47.841Z,23.80
2023-02-14T17:44:09.692Z,23.78
2023-02-14T17:47:31.984Z,23.75
2023-02-14T17:50:53.800Z,23.73
2023-02-14T17:54:15.706Z,23.70
2023-02-14T17:57:43.734Z,23.68
2023-02-14T18:01:11.982Z,23.66
2023-02-14T18:04:38.635Z,23.63
2023-02-14T18:08:03.615Z,23.61
2023-02-14T18:11:27.565Z,23.59
2023-02-14T18:14:49.388Z,23.56
2023-02-14T18:18:11.718Z,23.55
2023-02-14T18:21:36.240Z,23.53
2023-02-14T18:24:58.890Z,23.51
2023-02-14T18:28:22.013Z,23.49
2023-02-14T18:31:46.701Z,23.47
2023-02-14T18:35:09.688Z,23.45
2023-02-14T18:38:31.568Z,23.43
2023-02-14T18:41:53.436Z,23.42
2023-02-14T18:45:15.292Z,23.40
2023-02-14T18:48:37.653Z,23.38
2023-02-14T18:51:59.499Z,23.37
2023-02-14T18:55:21.503Z,23.35
2023-02-14T18:58:48.190Z,23.31
2023-02-14T19:02:14.138Z,23.30
2023-02-14T19:05:38.220Z,23.30
2023-02-14T19:09:07.062Z,23.29
2023-02-14T19:12:33.332Z,23.28
2023-02-14T19:15:56.644Z,23.27
2023-02-14T19:19:23.603Z,23.26
2023-02-14T19:22:45.503Z,23.25
2023-02-14T19:26:15.322Z,23.24
2023-02-14T19:29:38.432Z,23.23
2023-02-14T19:33:00.389Z,23.23
2023-02-14T19:36:23.444Z,23.22
2023-02-14T19:39:45.460Z,23.22
2023-02-14T19:43:07.684Z,23.20
2023-02-14T19:46:29.869Z,23.23
2023-02-14T19:49:51.802Z,23.25
2023-02-14T19:53:13.707Z,23.26
2023-02-14T19:56:40.740Z,23.24
2023-02-14T20:00:04.073Z,23.26
2023-02-14T20:03:33.442Z,23.29
2023-02-14T20:06:55.911Z,23.34
2023-02-14T20:10:17.939Z,23.38
2023-02-14T20:13:39.951Z,23.38
2023-02-14T20:17:04.431Z,23.39
2023-02-14T20:20:26.254Z,23.38
2023-02-14T20:23:48.089Z,23.37
2023-02-14T20:27:10.206Z,23.35
2023-02-14T20:30:32.029Z,23.33
2023-02-14T20:33:53.929Z,23.31
2023-02-14T20:37:15.952Z,23.28
2023-02-14T20:40:44.266Z,23.26
2023-02-14T20:44:09.272Z,23.23
2023-02-14T20:47:36.224Z,23.20
2023-02-14T20:51:10.472Z,23.18
2023-02-14T20:54:47.480Z,23.15
2023-02-14T20:58:11.681Z,23.12
2023-02-14T21:01:35.054Z,23.09
2023-02-14T21:05:00.326Z,23.08
2023-02-14T21:08:22.347Z,23.07
2023-02-14T21:11:44.253Z,23.05
2023-02-14T21:15:07.102Z,23.03
2023-02-14T21:18:29.178Z,23.01
2023-02-14T21:21:51.294Z,23.00
2023-02-14T21:25:13.082Z,22.98
2023-02-14T21:28:34.988Z,22.97
2023-02-14T21:31:56.948Z,22.96
2023-02-14T21:35:18.822Z,22.96
2023-02-14T21:38:41.169Z,22.96
2023-02-14T21:42:03.134Z,22.96
2023-02-14T21:45:44.174Z,22.95
2023-02-14T21:49:25.378Z,22.95
2023-02-14T21:52:47.204Z,22.96
2023-02-14T21:56:10.967Z,22.96
2023-02-14T21:59:32.723Z,22.98
2023-02-14T22:02:54.556Z,22.99
2023-02-14T22:06:17.150Z,22.99
2023-02-14T22:09:39.121Z,23.00
2023-02-14T22:13:01.119Z,23.00
2023-02-14T22:16:24.654Z,23.01
2023-02-14T22:19:47.542Z,23.01
2023-02-14T22:23:12.535Z,23.02
2023-02-14T22:26:38.902Z,23.03
2023-02-14T22:30:00.750Z,23.02
2023-02-14T22:33:24.394Z,23.04
2023-02-14T22:36:46.836Z,23.04
2023-02-14T22:40:09.113Z,23.05
2023-02-14T22:43:31.099Z,23.05
2023-02-14T22:46:52.975Z,23.05
2023-02-14T22:50:14.770Z,23.06
2023-02-14T22:53:37.075Z,23.07
2023-02-14T22:56:59.941Z,23.07
2023-02-14T23:00:22.211Z,23.07
2023-02-14T23:03:44.998Z,23.07
2023-02-14T23:07:07.331Z,23.07
2023-02-14T23:10:29.103Z,23.07
2023-02-14T23:14:09.567Z,23.07
2023-02-14T23:17:50.083Z,23.07
2023-02-14T23:21:32.411Z,23.06
2023-02-14T23:24:59.374Z,23.06
2023-02-14T23:28:21.499Z,23.07
2023-02-14T23:31:43.388Z,23.08
2023-02-14T23:35:06.531Z,23.08
2023-02-14T23:38:28.335Z,23.08
2023-02-14T23:41:50.213Z,23.08
2023-02-14T23:45:30.834Z,23.09
2023-02-14T23:48:52.990Z,23.09
2023-02-14T23:52:14.936Z,23.09
2023-02-14T23:55:36.746Z,23.10
2023-02-14T23:58:58.526Z,23.10
